Date,TemperatureHighF,TemperatureAvgF,TemperatureLowF,DewpointHighF,DewpointAvgF,DewpointLowF,HumidityHigh,HumidityAvg,HumidityLow,PressureMaxIn,PressureMinIn,WindSpeedMaxMPH,WindSpeedAvgMPH,GustSpeedMaxMPH,PrecipitationSumIn
2013-8-1,83,73,55,59,50,42,94,48,24,29.95,29.78,7,2,18,0.00
2013-8-2,85,73,53,59,50,46,89,48,27,29.87,29.72,5,2,12,0.00
2013-8-3,88,78,55,56,50,45,91,41,23,29.90,29.70,5,1,17,0.00
2013-8-4,85,75,58,58,54,50,85,50,30,29.87,29.68,6,2,18,0.00
2013-8-5,86,74,58,57,54,48,85,52,28,29.83,29.68,9,1,20,0.00
2013-8-6,86,73,59,59,54,49,85,55,30,29.83,29.68,7,3,18,0.00
2013-8-7,80,72,59,58,54,50,84,56,41,29.85,29.68,7,2,18,0.00
2013-8-8,85,73,57,59,52,45,95,54,26,29.82,29.64,8,2,18,0.10
2013-8-9,80,72,52,58,54,49,91,56,44,29.86,29.69,6,1,13,0.07
2013-8-10,77,68,57,63,55,49,86,64,46,29.98,29.83,6,2,20,0.06
2013-8-11,79,70,60,58,55,53,84,59,42,29.96,29.79,6,2,16,0.06
2013-8-12,81,71,57,63,55,52,90,60,38,29.87,29.78,6,2,16,0.09
2013-8-13,84,71,54,60,53,-100,96,59,31,29.92,29.74,8,2,14,0.09
2013-8-14,80,71,55,60,57,53,93,64,40,29.90,29.75,9,3,20,0.01
2013-8-15,82,65,54,60,42,-100,96,59,35,29.93,29.79,5,1,13,0.00
2013-8-16,85,71,53,55,45,-100,90,47,25,29.91,29.81,6,1,12,0.00
2013-8-17,86,72,54,55,46,-100,92,46,23,29.93,29.73,6,2,17,0.00
2013-8-18,85,70,58,60,51,46,86,54,26,29.93,29.73,8,2,21,0.29
2013-8-19,84,68,49,57,37,-100,95,48,22,29.98,29.74,6,2,18,0.01
2013-8-20,80,71,55,54,45,-100,78,43,27,29.86,29.73,6,2,25,0.00
2013-8-21,80,69,51,51,44,36,87,46,21,29.94,29.80,6,2,18,0.00
2013-8-22,78,67,51,60,54,48,92,64,40,29.93,29.80,6,2,16,0.01
2013-8-23,76,65,53,57,54,47,95,69,46,29.95,29.78,6,2,16,0.18
2013-8-24,79,70,64,57,52,-100,72,56,39,29.91,29.77,7,3,18,0.01
2013-8-25,78,68,51,57,53,49,95,60,43,30.01,29.86,6,2,18,0.00
2013-8-26,77,68,57,58,54,51,86,61,41,29.95,29.83,8,3,16,0.00
2013-8-27,73,65,62,59,57,54,87,77,54,29.90,29.80,7,3,17,0.00
2013-8-28,79,74,67,61,57,55,75,56,44,29.89,29.80,6,3,18,0.04
2013-8-29,82,70,54,59,55,51,95,61,37,29.97,29.84,4,1,13,0.05
2013-8-30,85,74,50,56,47,36,91,45,21,29.97,29.76,6,2,13,0.01
2013-8-31,89,75,48,54,43,-100,90,37,18,29.93,29.66,6,2,13,0.00